Shanghai Trader — 9HA3871 — position and weather

sailwx.info

Track history (hours):
 
Tides and Currents Weather Stations Pressure Air Temp Water Temp Dewpoint Dewpoint Depression Visibility Wind Speed Wind Dir Waves Ship Positions

Shanghai Trader

Last reported at 2018-Jan-19 05:59 UTC. Time now 2018-Jan-19 07:26 UTC.
Position N 32°06' W 080°60'.

Length 294 m; draft 10.4 m.

Type: Ship (hazmat cat A). MMSI: 256266000.

Date/timePositionNaut miles runAvg speedWind from/ knotsBaromVisibWave heightAir tempDewpointWater temp
2018-Jan-19 05:59N 32°06' W 080°60'510.0
2018-Jan-19 05:31N 32°05' W 081°05'4 7.0
2018-Jan-19 05:01N 32°08' W 081°08'0 0.8
2018-Jan-19 04:30N 32°08' W 081°08'0 0.0
2018-Jan-19 03:58N 32°08' W 081°08'0 0.0
2018-Jan-19 03:28N 32°08' W 081°08'0 0.0
2018-Jan-19 02:58N 32°08' W 081°08'0 0.0
2018-Jan-19 02:28N 32°08' W 081°08'0 0.0
2018-Jan-19 01:58N 32°08' W 081°08'0 0.0
2018-Jan-19 01:28N 32°08' W 081°08'0 0.0
2018-Jan-19 00:58N 32°08' W 081°08'0 0.0
2018-Jan-19 00:28N 32°08' W 081°08'0 0.0
2018-Jan-18 23:58N 32°08' W 081°08'0 0.0
2018-Jan-18 23:28N 32°08' W 081°08'0 0.0
2018-Jan-18 22:58N 32°08' W 081°08'0 0.0
2018-Jan-18 21:13N 32°08' W 081°08'0 0.0
2018-Jan-18 20:58N 32°08' W 081°08'0 0.0
2018-Jan-18 20:28N 32°08' W 081°08'0 0.0
2018-Jan-18 19:58N 32°08' W 081°08'0 0.0
2018-Jan-18 19:28N 32°08' W 081°08'0 0.0
2018-Jan-18 18:58N 32°08' W 081°08'0 0.0
2018-Jan-18 18:28N 32°08' W 081°08'0 0.0
2018-Jan-18 17:58N 32°08' W 081°08'0 0.0
2018-Jan-18 17:28N 32°08' W 081°08'0 0.0
2018-Jan-18 16:58N 32°08' W 081°08'0 0.0
2018-Jan-18 16:28N 32°08' W 081°08'0 0.0
2018-Jan-18 15:58N 32°08' W 081°08'0 0.0
2018-Jan-18 15:28N 32°08' W 081°08'0 0.0
2018-Jan-18 15:01N 32°08' W 081°08'1 1.5
2018-Jan-18 14:31N 32°07' W 081°08'3 5.4
2018-Jan-18 14:01N 32°05' W 081°06'3 5.6
2018-Jan-18 13:30N 32°05' W 081°03'4 7.5
2018-Jan-18 13:00N 32°04' W 080°58'612.0
2018-Jan-18 12:30N 32°02' W 080°52'611.8
2018-Jan-18 12:00N 31°59' W 080°46'611.7
2018-Jan-18 11:31N 31°56' W 080°40'4 7.4
2018-Jan-18 11:00N 31°55' W 080°36'1 2.5
2018-Jan-18 10:28N 31°55' W 080°34'2 3.3
2018-Jan-18 09:59N 31°54' W 080°33'0 0.2
2018-Jan-18 09:24N 31°54' W 080°32'0 0.0
2018-Jan-18 08:57N 31°54' W 080°32'0 0.0
2018-Jan-18 08:27N 31°54' W 080°32'0 0.0
2018-Jan-18 07:39N 31°54' W 080°32'0 0.1
2018-Jan-18 07:24N 31°54' W 080°32'0 0.0
2018-Jan-18 06:54N 31°54' W 080°32'0 0.0
2018-Jan-18 06:27N 31°54' W 080°32'0 0.0
2018-Jan-18 05:57N 31°54' W 080°32'0 0.1
2018-Jan-18 05:27N 31°54' W 080°32'0 0.0
2018-Jan-18 04:51N 31°54' W 080°32'0 0.0
2018-Jan-18 03:03N 31°54' W 080°32'0 0.3
2018-Jan-18 02:54N 31°54' W 080°32'0 0.0
2018-Jan-18 02:12N 31°54' W 080°32'0 0.0
2018-Jan-18 01:48N 31°54' W 080°32'0 0.0
2018-Jan-18 00:48N 31°54' W 080°32'0 0.0
2018-Jan-17 23:57N 31°54' W 080°32'  
2018-Jan-12 14:59N 40°41' W 074°09'0 0.0
2018-Jan-12 14:29N 40°41' W 074°09'0 0.0
2018-Jan-12 13:59N 40°41' W 074°09'0 0.0
2018-Jan-12 13:29N 40°41' W 074°09'0 0.0
2018-Jan-12 12:59N 40°41' W 074°09'0 0.0
2018-Jan-12 12:29N 40°41' W 074°09'0 0.0
2018-Jan-12 11:59N 40°41' W 074°09'0 0.0
2018-Jan-12 11:29N 40°41' W 074°09'0 0.0
2018-Jan-12 10:59N 40°41' W 074°09'0 0.0
2018-Jan-12 10:29N 40°41' W 074°09'0 0.0
2018-Jan-12 09:59N 40°41' W 074°09'0 0.0
2018-Jan-12 09:29N 40°41' W 074°09'0 0.0
2018-Jan-12 08:59N 40°41' W 074°09'0 0.0
2018-Jan-12 08:29N 40°41' W 074°09'0 0.0
2018-Jan-12 07:59N 40°41' W 074°09'0 0.0
2018-Jan-12 07:29N 40°41' W 074°09'0 0.0
2018-Jan-12 06:59N 40°41' W 074°09'0 0.0
2018-Jan-12 06:29N 40°41' W 074°09'0 0.0
2018-Jan-12 05:59N 40°41' W 074°09'0 0.0
2018-Jan-12 05:29N 40°41' W 074°09'0 0.0
2018-Jan-12 04:59N 40°41' W 074°09'0 0.0
2018-Jan-12 04:29N 40°41' W 074°09'0 0.0
2018-Jan-12 03:59N 40°41' W 074°09'0 0.0
2018-Jan-12 03:29N 40°41' W 074°09'0 0.0
2018-Jan-12 02:59N 40°41' W 074°09'0 0.0
2018-Jan-12 02:29N 40°41' W 074°09'0 0.0
2018-Jan-12 01:56N 40°41' W 074°09'0 0.0
2018-Jan-12 01:26N 40°41' W 074°09'0 0.0
2018-Jan-12 00:59N 40°41' W 074°09'0 0.0
2018-Jan-12 00:29N 40°41' W 074°09'0 0.0
2018-Jan-12 00:00N 40°41' W 074°09'0 0.9
2018-Jan-11 23:30N 40°40' W 074°08'2 3.4
2018-Jan-11 23:00N 40°39' W 074°07'3 6.1
2018-Jan-11 22:30N 40°39' W 074°03'4 8.3
2018-Jan-11 22:00N 40°35' W 074°02'5 8.7
2018-Jan-11 21:28N 40°31' W 073°59'5 9.9
2018-Jan-11 21:00N 40°29' W 073°53'11312.6
2018-Jan-11 12:00N 40°30' W 071°24'25821.5 180 / 141029.7 5.4 10.0 8.0
2018-Jan-11 00:00N 40°00' W 065°48'22518.8 100 / 61034.410.8 10.0 18.1
2018-Jan-10 12:00N 40°00' W 060°54'22518.8 340 / 351022.4 5.4 8.0 19.0
2018-Jan-10 00:00N 40°00' W 056°00'23919.9 270 / 291007.9 14.0 19.0
2018-Jan-09 12:00N 40°00' W 050°48'12019.9 230 / 141024.610.8 15.0 13.7
2018-Jan-09 06:00N 40°00' W 048°12'   270 / 251025.010.8 14.010.516.0
Track history (hours):
 
Tides and Currents Weather Stations Pressure Air Temp Water Temp Dewpoint Dewpoint Depression Visibility Wind Speed Wind Dir Waves Ship Positions

Shanghai Trader

Last reported at 2018-Jan-19 05:59 UTC. Time now 2018-Jan-19 07:26 UTC.
Position N 32°06' W 080°60'.

Length 294 m; draft 10.4 m.

Type: Ship (hazmat cat A). MMSI: 256266000.

Date/timePositionNaut miles runAvg speedWind from/ knotsBaromVisibWave heightAir tempDewpointWater temp
2018-Jan-19 05:59N 32°06' W 080°60'510.0
2018-Jan-19 05:31N 32°05' W 081°05'4 7.0
2018-Jan-19 05:01N 32°08' W 081°08'0 0.8
2018-Jan-19 04:30N 32°08' W 081°08'0 0.0
2018-Jan-19 03:58N 32°08' W 081°08'0 0.0
2018-Jan-19 03:28N 32°08' W 081°08'0 0.0
2018-Jan-19 02:58N 32°08' W 081°08'0 0.0
2018-Jan-19 02:28N 32°08' W 081°08'0 0.0
2018-Jan-19 01:58N 32°08' W 081°08'0 0.0
2018-Jan-19 01:28N 32°08' W 081°08'0 0.0
2018-Jan-19 00:58N 32°08' W 081°08'0 0.0
2018-Jan-19 00:28N 32°08' W 081°08'0 0.0
2018-Jan-18 23:58N 32°08' W 081°08'0 0.0
2018-Jan-18 23:28N 32°08' W 081°08'0 0.0
2018-Jan-18 22:58N 32°08' W 081°08'0 0.0
2018-Jan-18 21:13N 32°08' W 081°08'0 0.0
2018-Jan-18 20:58N 32°08' W 081°08'0 0.0
2018-Jan-18 20:28N 32°08' W 081°08'0 0.0
2018-Jan-18 19:58N 32°08' W 081°08'0 0.0
2018-Jan-18 19:28N 32°08' W 081°08'0 0.0
2018-Jan-18 18:58N 32°08' W 081°08'0 0.0
2018-Jan-18 18:28N 32°08' W 081°08'0 0.0
2018-Jan-18 17:58N 32°08' W 081°08'0 0.0
2018-Jan-18 17:28N 32°08' W 081°08'0 0.0
2018-Jan-18 16:58N 32°08' W 081°08'0 0.0
2018-Jan-18 16:28N 32°08' W 081°08'0 0.0
2018-Jan-18 15:58N 32°08' W 081°08'0 0.0
2018-Jan-18 15:28N 32°08' W 081°08'0 0.0
2018-Jan-18 15:01N 32°08' W 081°08'1 1.5
2018-Jan-18 14:31N 32°07' W 081°08'3 5.4
2018-Jan-18 14:01N 32°05' W 081°06'3 5.6
2018-Jan-18 13:30N 32°05' W 081°03'4 7.5
2018-Jan-18 13:00N 32°04' W 080°58'612.0
2018-Jan-18 12:30N 32°02' W 080°52'611.8
2018-Jan-18 12:00N 31°59' W 080°46'611.7
2018-Jan-18 11:31N 31°56' W 080°40'4 7.4
2018-Jan-18 11:00N 31°55' W 080°36'1 2.5
2018-Jan-18 10:28N 31°55' W 080°34'2 3.3
2018-Jan-18 09:59N 31°54' W 080°33'0 0.2
2018-Jan-18 09:24N 31°54' W 080°32'0 0.0
2018-Jan-18 08:57N 31°54' W 080°32'0 0.0
2018-Jan-18 08:27N 31°54' W 080°32'0 0.0
2018-Jan-18 07:39N 31°54' W 080°32'0 0.1
2018-Jan-18 07:24N 31°54' W 080°32'0 0.0
2018-Jan-18 06:54N 31°54' W 080°32'0 0.0
2018-Jan-18 06:27N 31°54' W 080°32'0 0.0
2018-Jan-18 05:57N 31°54' W 080°32'0 0.1
2018-Jan-18 05:27N 31°54' W 080°32'0 0.0
2018-Jan-18 04:51N 31°54' W 080°32'0 0.0
2018-Jan-18 03:03N 31°54' W 080°32'0 0.3
2018-Jan-18 02:54N 31°54' W 080°32'0 0.0
2018-Jan-18 02:12N 31°54' W 080°32'0 0.0
2018-Jan-18 01:48N 31°54' W 080°32'0 0.0
2018-Jan-18 00:48N 31°54' W 080°32'0 0.0
2018-Jan-17 23:57N 31°54' W 080°32'  
2018-Jan-12 14:59N 40°41' W 074°09'0 0.0
2018-Jan-12 14:29N 40°41' W 074°09'0 0.0
2018-Jan-12 13:59N 40°41' W 074°09'0 0.0
2018-Jan-12 13:29N 40°41' W 074°09'0 0.0
2018-Jan-12 12:59N 40°41' W 074°09'0 0.0
2018-Jan-12 12:29N 40°41' W 074°09'0 0.0
2018-Jan-12 11:59N 40°41' W 074°09'0 0.0
2018-Jan-12 11:29N 40°41' W 074°09'0 0.0
2018-Jan-12 10:59N 40°41' W 074°09'0 0.0
2018-Jan-12 10:29N 40°41' W 074°09'0 0.0
2018-Jan-12 09:59N 40°41' W 074°09'0 0.0
2018-Jan-12 09:29N 40°41' W 074°09'0 0.0
2018-Jan-12 08:59N 40°41' W 074°09'0 0.0
2018-Jan-12 08:29N 40°41' W 074°09'0 0.0
2018-Jan-12 07:59N 40°41' W 074°09'0 0.0
2018-Jan-12 07:29N 40°41' W 074°09'0 0.0
2018-Jan-12 06:59N 40°41' W 074°09'0 0.0
2018-Jan-12 06:29N 40°41' W 074°09'0 0.0
2018-Jan-12 05:59N 40°41' W 074°09'0 0.0
2018-Jan-12 05:29N 40°41' W 074°09'0 0.0
2018-Jan-12 04:59N 40°41' W 074°09'0 0.0
2018-Jan-12 04:29N 40°41' W 074°09'0 0.0
2018-Jan-12 03:59N 40°41' W 074°09'0 0.0
2018-Jan-12 03:29N 40°41' W 074°09'0 0.0
2018-Jan-12 02:59N 40°41' W 074°09'0 0.0
2018-Jan-12 02:29N 40°41' W 074°09'0 0.0
2018-Jan-12 01:56N 40°41' W 074°09'0 0.0
2018-Jan-12 01:26N 40°41' W 074°09'0 0.0
2018-Jan-12 00:59N 40°41' W 074°09'0 0.0
2018-Jan-12 00:29N 40°41' W 074°09'0 0.0
2018-Jan-12 00:00N 40°41' W 074°09'0 0.9
2018-Jan-11 23:30N 40°40' W 074°08'2 3.4
2018-Jan-11 23:00N 40°39' W 074°07'3 6.1
2018-Jan-11 22:30N 40°39' W 074°03'4 8.3
2018-Jan-11 22:00N 40°35' W 074°02'5 8.7
2018-Jan-11 21:28N 40°31' W 073°59'5 9.9
2018-Jan-11 21:00N 40°29' W 073°53'11312.6
2018-Jan-11 12:00N 40°30' W 071°24'25821.5 180 / 141029.7 5.4 10.0 8.0
2018-Jan-11 00:00N 40°00' W 065°48'22518.8 100 / 61034.410.8 10.0 18.1
2018-Jan-10 12:00N 40°00' W 060°54'22518.8 340 / 351022.4 5.4 8.0 19.0
2018-Jan-10 00:00N 40°00' W 056°00'23919.9 270 / 291007.9 14.0 19.0
2018-Jan-09 12:00N 40°00' W 050°48'12019.9 230 / 141024.610.8 15.0 13.7
2018-Jan-09 06:00N 40°00' W 048°12'   270 / 251025.010.8 14.010.516.0

Dump ship's entire track history